Česky Dansk Deutsch English Español Suomi Français Magyar Italiano Nederlands norsk Polski Português svenska Türkçe

 

Het Weer

Lulea / Kallax (Zweden)

09:20, 2 augustus 2016 (GMT)

NWNNE
WE
SWSSE
Home            
Lulea / Kallax Vidsel Skelleftea Airport Kemi Hailuoto Pello Jokkmokk Oulu Gallivare Lycksele Rovaniemi Kruunupyy Umea Flygplats Gunnarn Pudasjarvi Kiruna Airport Kittila Kauhava Vaasa Ornskoldsvik Airport Sodankyla Kajaani Enontekio

Om een weerknop op uw website of weblog te plaatsen, copieer onderstaande code en plak die in uw pagina. In het eerste vakje staat HTML-code, in het tweede vakje UBB-code.


Add to Google

Details

Wind speed:3 bf, 8 kn, 4.1 m/s, 9.2 miles/h, 14.8 km/h
Wind direction:S, 170°
Visibility:Greater than 10000 m, 10 km, 32800 ft, 6.2 miles
Clouds:CAVOC
Temperature:17°C, 63°F
Dew-point:13°C, 55°F
Atmospheric pressure:1003 hPa, 752.3 mmHg, 29.62 inHg, 0.990 atm
Relative humidity:77.3 %
METAR:ESPA 020920Z 17008KT CAVOK 17/13 Q1003

Snelkoppelingen

Actuele weersinformatie van de hele wereld. Voeg locaties toe met het plus (+) symbool. Deze snelkoppelingen kunnen worden toegevoegd aan Google.

Lid van de Technetium groep

website free tracking
StatCounter NetStat W3C Validator

06-12-2019 10:06:55
astro.technetium.be money.technetium.be phote.technetium.be tafeltennistafel.technetium.be www.ligfiets.net